Terminal Aerodrome Forecast
Issued by NWS

Home | Current Version | Previous Version | Text Only | Print | Product List | Glossary On
Versions: 1 2 3 4 5 6 7 8 9 10 11 12 13 14 15
000
FTUS43 KMPX 021728
TAFRNH
TAF
KRNH 021728Z 0218/0318 20007KT P6SM FEW250
     FM022000 16007KT P6SM SCT250
     FM030000 15008KT P6SM SCT060 OVC100
     FM030800 15010KT 4SM -SN OVC020
     FM031000 14008KT 3/4SM -SN BR OVC007=

USA.gov is the U.S. government's official web portal to all federal, state and local government web resources and services.